Forside
METAR-TAF:

METAR-TAF

Lufthavne :

Mora Municipal Airport

Mora, Minnesota, USA

Breddekreds: 45-53-10N, længdekreds: 093-16-18W, højde: 309 m

Aktuelle vejr

Denne rapport blev lavet for 25 minutter siden, kl. 09:35 UTC
Vind stille
Temperatur 0°C
Fugtighed 93%
Tryk 1021 hPa
Sigt: 16.1 km
skyfri

METAR: KJMR 230935Z AUTO 00000KT 10SM CLR 00/M01 A3014 RMK AO2

Tid: 05:00 (10:00 UTC)


TAF: fraværende

Vejrobservationer og prognoser fra mere end 4000 lufthavne (METAR og TAF).

De gule og røde prikker repræsenterer de meteorologiske stationer.

Flyt musen over at se navnet på stationen.

Så klik over at se vejr observationer og prognoser.

At skifte det kort: Klik på de grønne knapper med et sort kors for at zoome ind; på den grønne knap med en bindestreg for at zoome ud; eller på de grønne pile for tilstødende kort.


METAR-TAF: